Terminal Aerodrome Forecast
Issued by NWS

Home | Current Version | Previous Version | Text Only | Print | Product List | Glossary On
Versions: 1 2 3 4 5 6 7 8 9 10 11 12 13
885
FTUS46 KPDT 261120
TAFDLS
TAF
KDLS 261120Z 2612/2712 VRB03KT P6SM SCT250
     FM262000 08008KT P6SM FEW250
     FM270400 VRB03KT P6SM SKC=

USA.gov is the U.S. government's official web portal to all federal, state and local government web resources and services.